createdAt,value
2017-11-13T00:00:42.526Z,112.5
2017-11-13T00:01:42.575Z,112.5
2017-11-13T00:02:42.523Z,112.5
2017-11-13T00:03:42.602Z,112.5
2017-11-13T00:04:42.507Z,112.5
2017-11-13T00:05:42.568Z,112.5
2017-11-13T00:06:42.584Z,112.5
2017-11-13T00:07:42.522Z,112.5
2017-11-13T00:08:42.482Z,112.5
2017-11-13T00:09:42.526Z,112.5
2017-11-13T00:10:42.627Z,112.5
2017-11-13T00:11:42.571Z,112.5
2017-11-13T00:12:42.550Z,112.5
2017-11-13T00:13:42.592Z,112.5
2017-11-13T00:14:42.563Z,112.5
2017-11-13T00:15:42.555Z,112.5
2017-11-13T00:16:42.604Z,112.5
2017-11-13T00:17:42.559Z,112.5
2017-11-13T00:18:42.931Z,112.5
2017-11-13T00:19:42.577Z,112.5
2017-11-13T00:20:42.551Z,112.5
2017-11-13T00:21:43.015Z,112.5
2017-11-13T00:22:43.581Z,112.5
2017-11-13T00:23:42.546Z,112.5
2017-11-13T00:24:42.537Z,112.5
2017-11-13T00:25:42.544Z,112.5
2017-11-13T00:26:42.641Z,112.5
2017-11-13T00:27:42.561Z,112.5
2017-11-13T00:28:42.541Z,112.5
2017-11-13T00:29:42.557Z,112.5
2017-11-13T00:30:42.573Z,112.5
2017-11-13T00:31:42.668Z,112.5
2017-11-13T00:32:42.560Z,112.5
2017-11-13T00:33:42.592Z,112.5
2017-11-13T00:34:42.536Z,112.5
2017-11-13T00:35:42.527Z,112.5
2017-11-13T00:36:42.650Z,112.5
2017-11-13T00:37:42.564Z,112.5
2017-11-13T00:38:42.548Z,112.5
2017-11-13T00:39:42.510Z,112.5
2017-11-13T00:40:42.607Z,112.5
2017-11-13T00:41:42.628Z,112.5
2017-11-13T00:42:42.532Z,112.5
2017-11-13T00:43:42.543Z,112.5
2017-11-13T00:44:42.552Z,112.5
2017-11-13T00:45:42.599Z,112.5
2017-11-13T00:46:42.783Z,112.5
2017-11-13T00:47:42.527Z,112.5
2017-11-13T00:48:42.543Z,112.5
2017-11-13T00:49:42.543Z,112.5
2017-11-13T00:50:42.567Z,112.5
2017-11-13T00:51:42.621Z,112.5
2017-11-13T00:52:42.547Z,112.5
2017-11-13T00:53:42.546Z,112.5
2017-11-13T00:54:42.529Z,112.5
2017-11-13T00:55:42.552Z,112.5
2017-11-13T00:56:42.630Z,112.5
2017-11-13T00:57:42.537Z,112.5
2017-11-13T00:58:42.541Z,112.5
2017-11-13T00:59:42.508Z,112.5
2017-11-13T01:00:42.520Z,112.5
2017-11-13T01:01:42.563Z,112.5
2017-11-13T01:02:42.574Z,112.5
2017-11-13T01:03:42.511Z,112.5
2017-11-13T01:04:42.525Z,112.5
2017-11-13T01:05:42.498Z,112.5
2017-11-13T01:06:42.497Z,112.5
2017-11-13T01:07:42.555Z,112.5
2017-11-13T01:08:42.564Z,112.5
2017-11-13T01:09:42.534Z,112.5
2017-11-13T01:10:42.580Z,112.5
2017-11-13T01:11:42.556Z,112.5
2017-11-13T01:12:43.592Z,112.5
2017-11-13T01:13:42.574Z,112.5
2017-11-13T01:14:42.567Z,112.5
2017-11-13T01:15:43.191Z,112.5
2017-11-13T01:16:42.523Z,112.5
2017-11-13T01:17:42.583Z,112.5
2017-11-13T01:18:42.532Z,112.5
2017-11-13T01:19:42.540Z,112.5
2017-11-13T01:20:42.527Z,112.5
2017-11-13T01:21:42.495Z,112.5
2017-11-13T01:22:42.660Z,112.5
2017-11-13T01:23:42.526Z,112.5
2017-11-13T01:24:42.505Z,112.5
2017-11-13T01:25:42.469Z,112.5
2017-11-13T01:26:42.468Z,112.5
2017-11-13T01:27:42.559Z,112.5
2017-11-13T01:28:42.477Z,112.5
2017-11-13T01:29:42.529Z,112.5
2017-11-13T01:30:42.530Z,112.5
2017-11-13T01:31:42.517Z,112.5
2017-11-13T01:32:42.588Z,112.5
2017-11-13T01:33:42.531Z,112.5
2017-11-13T01:34:42.547Z,112.5
2017-11-13T01:35:42.483Z,112.5
2017-11-13T01:36:42.550Z,112.5
2017-11-13T01:37:42.557Z,112.5
2017-11-13T01:38:42.574Z,112.5
2017-11-13T01:39:42.525Z,112.5
2017-11-13T01:40:42.564Z,112.5
2017-11-13T01:41:42.514Z,112.5
2017-11-13T01:42:42.638Z,112.5
2017-11-13T01:43:42.526Z,112.5
2017-11-13T01:44:42.486Z,112.5
2017-11-13T01:45:42.487Z,112.5
2017-11-13T01:47:17.075Z,112.5
2017-11-13T01:47:42.624Z,112.5
2017-11-13T01:48:42.489Z,112.5
2017-11-13T01:49:42.523Z,112.5
2017-11-13T01:50:42.503Z,112.5
2017-11-13T01:51:42.494Z,112.5
2017-11-13T01:52:42.681Z,112.5
2017-11-13T01:53:42.495Z,112.5
2017-11-13T01:54:42.536Z,112.5
2017-11-13T01:55:42.509Z,112.5
2017-11-13T01:56:42.485Z,112.5
2017-11-13T01:57:42.588Z,112.5
2017-11-13T01:58:42.518Z,112.5
2017-11-13T01:59:42.523Z,112.5
2017-11-13T02:00:43.026Z,112.5
2017-11-13T02:01:42.528Z,112.5
2017-11-13T02:02:42.547Z,112.5
2017-11-13T02:03:42.551Z,112.5
2017-11-13T02:04:42.465Z,112.5
2017-11-13T02:05:42.479Z,112.5
2017-11-13T02:06:42.465Z,112.5
2017-11-13T02:07:42.482Z,112.5
2017-11-13T02:08:42.522Z,112.5
2017-11-13T02:09:42.486Z,112.5
2017-11-13T02:10:42.485Z,112.5
2017-11-13T02:11:42.479Z,112.5
2017-11-13T02:12:42.465Z,112.5
2017-11-13T02:13:42.497Z,112.5
2017-11-13T02:14:42.485Z,112.5
2017-11-13T02:15:42.439Z,112.5
2017-11-13T02:16:42.487Z,112.5
2017-11-13T02:17:42.499Z,112.5
2017-11-13T02:18:42.526Z,112.5
2017-11-13T02:19:42.488Z,112.5
2017-11-13T02:20:42.476Z,112.5
2017-11-13T02:21:42.499Z,112.5
2017-11-13T02:22:42.436Z,112.5
2017-11-13T02:23:42.663Z,112.5
2017-11-13T02:24:42.481Z,112.5
2017-11-13T02:25:42.457Z,112.5
2017-11-13T02:26:42.489Z,112.5
2017-11-13T02:27:42.460Z,112.5
2017-11-13T02:28:42.607Z,112.5
2017-11-13T02:29:42.469Z,112.5
2017-11-13T02:30:42.492Z,112.5
2017-11-13T02:31:42.459Z,112.5
2017-11-13T02:32:42.486Z,112.5
2017-11-13T02:33:42.536Z,112.5
2017-11-13T02:34:42.467Z,112.5
2017-11-13T02:35:42.447Z,112.5
2017-11-13T02:36:42.540Z,112.5
2017-11-13T02:37:42.465Z,112.5
2017-11-13T02:38:42.592Z,112.5
2017-11-13T02:39:42.478Z,112.5
2017-11-13T02:40:42.455Z,112.5
2017-11-13T02:41:42.478Z,112.5
2017-11-13T02:42:42.479Z,112.5
2017-11-13T02:43:42.545Z,112.5
2017-11-13T02:44:42.521Z,112.5
2017-11-13T02:45:42.462Z,112.5
2017-11-13T02:46:42.455Z,112.5
2017-11-13T02:47:42.479Z,112.5
2017-11-13T02:48:42.581Z,112.5
2017-11-13T02:49:42.450Z,112.5
2017-11-13T02:50:42.460Z,112.5
2017-11-13T02:51:42.446Z,112.5
2017-11-13T02:52:42.458Z,112.5
2017-11-13T02:53:42.526Z,112.5
2017-11-13T02:54:42.435Z,112.5
2017-11-13T02:55:42.445Z,112.5
2017-11-13T02:56:42.438Z,112.5
2017-11-13T02:57:42.518Z,112.5
2017-11-13T02:58:42.553Z,112.5
2017-11-13T02:59:42.528Z,112.5
2017-11-13T03:00:42.438Z,112.5
2017-11-13T03:01:42.469Z,112.5
2017-11-13T03:02:42.485Z,112.5
2017-11-13T03:03:42.461Z,112.5
2017-11-13T03:04:42.490Z,112.5
2017-11-13T03:05:42.472Z,112.5
2017-11-13T03:06:42.529Z,112.5
2017-11-13T03:07:42.434Z,112.5
2017-11-13T03:08:42.475Z,112.5
2017-11-13T03:09:42.502Z,112.5
2017-11-13T03:10:42.463Z,112.5
2017-11-13T03:11:42.413Z,112.5
2017-11-13T03:12:42.498Z,112.5
2017-11-13T03:13:42.492Z,112.5
2017-11-13T03:14:42.486Z,112.5
2017-11-13T03:15:42.454Z,112.5
2017-11-13T03:16:42.457Z,112.5
2017-11-13T03:17:42.469Z,112.5
2017-11-13T03:18:42.441Z,112.5
2017-11-13T03:19:42.520Z,112.5
2017-11-13T03:20:42.447Z,112.5
2017-11-13T03:21:42.451Z,112.5
2017-11-13T03:22:42.479Z,112.5
2017-11-13T03:23:42.414Z,112.5
2017-11-13T03:24:42.496Z,112.5
2017-11-13T03:25:42.476Z,112.5
2017-11-13T03:26:42.429Z,112.5
2017-11-13T03:27:42.436Z,112.5
2017-11-13T03:28:42.418Z,112.5
2017-11-13T03:29:42.523Z,112.5
2017-11-13T03:30:42.462Z,112.5
2017-11-13T03:31:42.481Z,112.5
2017-11-13T03:32:42.471Z,112.5
2017-11-13T03:33:42.456Z,112.5
2017-11-13T03:34:42.546Z,112.5
2017-11-13T03:35:42.455Z,112.5
2017-11-13T03:36:42.442Z,112.5
2017-11-13T03:37:42.435Z,112.5
2017-11-13T03:38:42.438Z,112.5
2017-11-13T03:39:42.548Z,112.5
2017-11-13T03:40:42.435Z,112.5
2017-11-13T03:41:42.420Z,112.5
2017-11-13T03:42:42.448Z,112.5
2017-11-13T03:43:42.458Z,112.5
2017-11-13T03:44:42.515Z,112.5
2017-11-13T03:45:42.464Z,112.5
2017-11-13T03:46:42.450Z,112.5
2017-11-13T03:47:42.405Z,112.5
2017-11-13T03:48:42.416Z,112.5
2017-11-13T03:49:42.625Z,112.5
2017-11-13T03:50:42.429Z,112.5
2017-11-13T03:51:42.414Z,112.5
2017-11-13T03:52:42.412Z,112.5
2017-11-13T03:53:42.463Z,112.5
2017-11-13T03:54:42.496Z,112.5
2017-11-13T03:55:42.418Z,112.5
2017-11-13T03:56:42.487Z,112.5
2017-11-13T03:57:42.447Z,112.5
2017-11-13T03:58:42.442Z,112.5
2017-11-13T03:59:42.448Z,112.5
2017-11-13T04:00:42.443Z,112.5
2017-11-13T04:01:42.430Z,112.5
2017-11-13T04:02:42.441Z,112.5
2017-11-13T04:03:42.434Z,112.5
2017-11-13T04:04:42.492Z,112.5
2017-11-13T04:05:42.426Z,112.5
2017-11-13T04:06:42.417Z,112.5
2017-11-13T04:07:42.385Z,112.5
2017-11-13T04:08:42.413Z,112.5
2017-11-13T04:09:42.484Z,112.5
2017-11-13T04:10:42.441Z,112.5
2017-11-13T04:11:42.525Z,112.5
2017-11-13T04:12:42.428Z,112.5
2017-11-13T04:13:42.408Z,112.5
2017-11-13T04:14:42.490Z,112.5
2017-11-13T04:15:42.502Z,112.5
2017-11-13T04:16:42.415Z,112.5
2017-11-13T04:17:42.423Z,112.5
2017-11-13T04:18:42.453Z,112.5
2017-11-13T04:19:42.493Z,112.5
2017-11-13T04:20:42.412Z,112.5
2017-11-13T04:21:42.443Z,112.5
2017-11-13T04:22:42.435Z,112.5
2017-11-13T04:23:42.468Z,112.5
2017-11-13T04:24:42.483Z,112.5
2017-11-13T04:25:42.452Z,112.5
2017-11-13T04:26:42.455Z,112.5
2017-11-13T04:27:42.438Z,112.5
2017-11-13T04:28:42.429Z,112.5
2017-11-13T04:29:42.423Z,112.5
2017-11-13T04:30:42.437Z,112.5
2017-11-13T04:31:42.353Z,112.5
2017-11-13T04:32:42.394Z,112.5
2017-11-13T04:33:42.479Z,112.5
2017-11-13T04:34:42.414Z,112.5
2017-11-13T04:35:42.549Z,112.5
2017-11-13T04:36:42.396Z,112.5
2017-11-13T04:37:42.389Z,112.5
2017-11-13T04:38:42.405Z,112.5
2017-11-13T04:39:42.411Z,112.5
2017-11-13T04:40:42.511Z,112.5
2017-11-13T04:41:42.386Z,112.5
2017-11-13T04:42:42.395Z,112.5
2017-11-13T04:43:42.398Z,112.5
2017-11-13T04:44:42.417Z,112.5
2017-11-13T04:45:42.491Z,112.5
2017-11-13T04:46:42.394Z,112.5
2017-11-13T04:47:42.382Z,112.5
2017-11-13T04:48:42.379Z,112.5
2017-11-13T04:49:42.353Z,112.5
2017-11-13T04:50:42.472Z,112.5
2017-11-13T04:51:42.408Z,112.5
2017-11-13T04:52:42.427Z,112.5
2017-11-13T04:53:42.393Z,112.5
2017-11-13T04:54:42.404Z,112.5
2017-11-13T04:55:42.451Z,112.5
2017-11-13T04:56:42.374Z,112.5
2017-11-13T04:57:42.378Z,112.5
2017-11-13T04:58:42.527Z,112.5
2017-11-13T04:59:42.412Z,112.5
2017-11-13T05:00:42.446Z,112.5
2017-11-13T05:01:42.375Z,112.5
2017-11-13T05:02:42.385Z,112.5
2017-11-13T05:03:42.347Z,112.5
2017-11-13T05:04:42.379Z,112.5
2017-11-13T05:05:42.498Z,112.5
2017-11-13T05:06:42.376Z,112.5
2017-11-13T05:07:42.394Z,112.5
2017-11-13T05:08:42.378Z,112.5
2017-11-13T05:09:42.371Z,112.5
2017-11-13T05:10:42.439Z,112.5
2017-11-13T05:11:42.431Z,112.5
2017-11-13T05:12:42.373Z,112.5
2017-11-13T05:13:42.402Z,112.5
2017-11-13T05:14:42.384Z,112.5
2017-11-13T05:15:42.449Z,112.5
2017-11-13T05:16:43.008Z,112.5
2017-11-13T05:17:42.379Z,112.5
2017-11-13T05:18:42.382Z,112.5
2017-11-13T05:19:42.387Z,112.5
2017-11-13T05:20:42.464Z,112.5
2017-11-13T05:26:04.409Z,112.5
2017-11-13T05:26:42.403Z,112.5
2017-11-13T05:27:42.356Z,112.5
2017-11-13T05:28:42.359Z,112.5
2017-11-13T05:29:42.386Z,112.5
2017-11-13T05:30:42.369Z,112.5
2017-11-13T05:31:42.427Z,112.5
2017-11-13T05:32:42.382Z,112.5
2017-11-13T05:33:42.364Z,112.5
2017-11-13T05:34:42.352Z,112.5
2017-11-13T05:35:42.393Z,112.5
2017-11-13T05:36:42.406Z,112.5
2017-11-13T05:37:42.373Z,112.5
2017-11-13T05:38:42.375Z,112.5
2017-11-13T05:39:42.436Z,112.5
2017-11-13T05:40:42.350Z,112.5
2017-11-13T05:41:42.407Z,112.5
2017-11-13T05:42:42.425Z,112.5
2017-11-13T05:43:42.375Z,112.5
2017-11-13T05:44:42.385Z,112.5
2017-11-13T05:45:42.371Z,112.5
2017-11-13T05:46:42.432Z,112.5
2017-11-13T05:47:42.362Z,112.5
2017-11-13T05:48:42.336Z,112.5
2017-11-13T05:49:42.354Z,112.5
2017-11-13T05:50:42.376Z,112.5
2017-11-13T05:51:42.487Z,112.5
2017-11-13T05:52:42.441Z,112.5
2017-11-13T05:53:42.367Z,112.5
2017-11-13T05:54:42.370Z,112.5
2017-11-13T05:55:42.380Z,112.5
2017-11-13T05:56:42.483Z,112.5
2017-11-13T05:57:42.361Z,112.5
2017-11-13T05:58:42.348Z,112.5
2017-11-13T05:59:42.330Z,112.5
2017-11-13T06:00:42.369Z,112.5
2017-11-13T06:01:42.437Z,112.5
2017-11-13T06:02:42.345Z,112.5
2017-11-13T06:03:42.369Z,112.5
2017-11-13T06:04:42.344Z,112.5
2017-11-13T06:05:42.359Z,112.5
2017-11-13T06:06:42.439Z,112.5
2017-11-13T06:07:43.016Z,112.5
2017-11-13T06:08:42.343Z,112.5
2017-11-13T06:09:42.502Z,112.5
2017-11-13T06:10:44.623Z,112.5
2017-11-13T06:11:42.397Z,112.5
2017-11-13T06:12:42.394Z,112.5
2017-11-13T06:13:42.365Z,112.5
2017-11-13T06:14:42.350Z,112.5
2017-11-13T06:15:42.378Z,112.5
2017-11-13T06:16:42.406Z,112.5
2017-11-13T06:17:42.351Z,112.5
2017-11-13T06:18:42.405Z,112.5
2017-11-13T06:19:42.381Z,112.5
2017-11-13T06:20:42.366Z,112.5
2017-11-13T06:21:42.399Z,112.5
2017-11-13T06:22:42.476Z,112.5
2017-11-13T06:23:42.341Z,112.5
2017-11-13T06:24:42.342Z,112.5
2017-11-13T06:25:42.351Z,112.5
2017-11-13T06:26:42.435Z,112.5
2017-11-13T06:27:42.355Z,112.5
2017-11-13T06:28:42.379Z,112.5
2017-11-13T06:29:42.344Z,112.5
2017-11-13T06:30:42.309Z,112.5
2017-11-13T06:31:42.371Z,112.5
2017-11-13T06:32:42.348Z,112.5
2017-11-13T06:33:42.378Z,112.5
2017-11-13T06:34:42.374Z,112.5
2017-11-13T06:35:42.361Z,112.5
2017-11-13T06:36:42.422Z,112.5
2017-11-13T06:37:43.612Z,112.5
2017-11-13T06:38:42.337Z,112.5
2017-11-13T06:39:42.350Z,112.5
2017-11-13T06:40:42.345Z,112.5
2017-11-13T06:41:42.367Z,112.5
2017-11-13T06:42:42.331Z,112.5
2017-11-13T06:43:42.399Z,112.5
2017-11-13T06:44:42.347Z,112.5
2017-11-13T06:45:42.407Z,112.5
2017-11-13T06:46:42.379Z,112.5
2017-11-13T06:47:42.382Z,112.5
2017-11-13T06:48:42.358Z,112.5
2017-11-13T06:49:42.303Z,112.5
2017-11-13T06:50:42.486Z,112.5
2017-11-13T06:51:42.469Z,112.5
2017-11-13T06:52:42.322Z,112.5
2017-11-13T06:53:42.316Z,112.5
2017-11-13T06:54:42.396Z,112.5
2017-11-13T06:55:42.378Z,112.5
2017-11-13T06:56:42.351Z,112.5
2017-11-13T06:57:42.297Z,112.5
2017-11-13T06:58:42.382Z,112.5
2017-11-13T06:59:42.362Z,112.5
2017-11-13T07:00:42.344Z,112.5
2017-11-13T07:01:42.375Z,112.5
2017-11-13T07:02:42.364Z,112.5
2017-11-13T07:03:42.317Z,112.5
2017-11-13T07:04:42.340Z,112.5
2017-11-13T07:05:42.346Z,112.5
2017-11-13T07:06:42.296Z,112.5
2017-11-13T07:07:42.340Z,112.5
2017-11-13T07:08:42.317Z,112.5
2017-11-13T07:09:42.321Z,112.5
2017-11-13T07:10:42.300Z,112.5
2017-11-13T07:11:42.304Z,112.5
2017-11-13T07:12:42.386Z,112.5
2017-11-13T07:13:42.303Z,112.5
2017-11-13T07:14:42.317Z,112.5
2017-11-13T07:15:42.315Z,112.5
2017-11-13T07:16:42.615Z,112.5
2017-11-13T07:17:42.393Z,112.5
2017-11-13T07:18:42.421Z,112.5
2017-11-13T07:19:42.285Z,112.5
2017-11-13T07:20:42.328Z,112.5
2017-11-13T07:21:42.329Z,112.5
2017-11-13T07:22:42.391Z,112.5
2017-11-13T07:23:42.375Z,112.5
2017-11-13T07:24:42.310Z,112.5
2017-11-13T07:25:42.315Z,112.5
2017-11-13T07:26:42.297Z,112.5
2017-11-13T07:27:42.347Z,112.5
2017-11-13T07:28:42.335Z,112.5
2017-11-13T07:29:42.368Z,112.5
2017-11-13T07:30:42.319Z,112.5
2017-11-13T07:31:42.308Z,112.5
2017-11-13T07:32:42.384Z,112.5
2017-11-13T07:33:42.299Z,112.5
2017-11-13T07:34:42.340Z,112.5
2017-11-13T07:35:42.295Z,112.5
2017-11-13T07:36:42.300Z,112.5
2017-11-13T07:37:42.395Z,112.5
2017-11-13T07:38:42.328Z,112.5
2017-11-13T07:39:42.319Z,112.5
2017-11-13T07:40:42.282Z,112.5
2017-11-13T07:41:42.268Z,112.5
2017-11-13T07:42:42.391Z,112.5
2017-11-13T07:43:42.306Z,112.5
2017-11-13T07:44:42.305Z,112.5
2017-11-13T07:45:42.291Z,112.5
2017-11-13T07:46:42.286Z,112.5
2017-11-13T07:47:42.406Z,112.5
2017-11-13T07:48:42.317Z,112.5
2017-11-13T07:49:42.319Z,112.5
2017-11-13T07:50:42.315Z,112.5
2017-11-13T07:51:42.292Z,112.5
2017-11-13T07:52:42.409Z,112.5
2017-11-13T07:53:42.303Z,112.5
2017-11-13T07:54:42.295Z,112.5
2017-11-13T07:55:42.289Z,112.5
2017-11-13T07:56:42.318Z,112.5
2017-11-13T07:57:42.359Z,118.3
2017-11-13T07:58:42.300Z,127.3
2017-11-13T07:59:42.262Z,131.4
2017-11-13T08:00:42.296Z,133.3
2017-11-13T08:01:42.273Z,134.2
2017-11-13T08:02:42.417Z,134.6
2017-11-13T08:03:42.322Z,134.8
2017-11-13T08:04:42.316Z,135.4
2017-11-13T08:05:42.304Z,135.2
2017-11-13T08:06:42.315Z,135.1
2017-11-13T08:07:42.345Z,135
2017-11-13T08:08:42.311Z,135
2017-11-13T08:09:42.319Z,135
2017-11-13T08:10:42.313Z,135
2017-11-13T08:11:42.302Z,135
2017-11-13T08:12:44.212Z,135
2017-11-13T08:13:42.310Z,135
2017-11-13T08:14:42.342Z,135
2017-11-13T08:15:42.281Z,135
2017-11-13T08:16:42.265Z,135
2017-11-13T08:17:42.359Z,135
2017-11-13T08:18:42.271Z,135
2017-11-13T08:19:42.320Z,135
2017-11-13T08:20:42.346Z,135
2017-11-13T08:21:42.282Z,135
2017-11-13T08:22:42.368Z,135
2017-11-13T08:23:42.290Z,135
2017-11-13T08:24:42.285Z,135
2017-11-13T08:25:42.341Z,135
2017-11-13T08:26:42.260Z,135
2017-11-13T08:27:42.410Z,135
2017-11-13T08:28:42.322Z,135
2017-11-13T08:29:42.281Z,135
2017-11-13T08:30:42.379Z,135
2017-11-13T08:31:42.269Z,135
2017-11-13T08:32:42.349Z,135
2017-11-13T08:33:42.331Z,135
2017-11-13T08:34:45.063Z,135
2017-11-13T08:35:42.269Z,135
2017-11-13T08:36:42.257Z,135
2017-11-13T08:37:42.302Z,135
2017-11-13T08:38:42.342Z,135
2017-11-13T08:39:42.281Z,135
2017-11-13T08:40:42.321Z,135
2017-11-13T08:41:42.280Z,135
2017-11-13T08:42:42.279Z,135
2017-11-13T08:43:42.379Z,135
2017-11-13T08:44:42.281Z,135
2017-11-13T08:45:42.279Z,135
2017-11-13T08:46:42.279Z,135
2017-11-13T08:47:42.266Z,135
2017-11-13T08:48:42.345Z,135
2017-11-13T08:49:42.325Z,135
2017-11-13T08:50:42.311Z,135
2017-11-13T08:51:42.327Z,132
2017-11-13T08:52:42.292Z,127.1
2017-11-13T08:53:42.330Z,131.4
2017-11-13T08:54:42.267Z,133.3
2017-11-13T08:55:42.271Z,134.2
2017-11-13T08:56:42.283Z,134.6
2017-11-13T08:57:42.287Z,134.8
2017-11-13T08:58:44.504Z,134.9
2017-11-13T08:59:42.280Z,135
2017-11-13T09:00:42.266Z,135
2017-11-13T09:01:42.258Z,135
2017-11-13T09:02:42.264Z,135
2017-11-13T09:03:42.355Z,135
2017-11-13T09:04:42.277Z,135
2017-11-13T09:05:42.265Z,135
2017-11-13T09:06:42.289Z,135
2017-11-13T09:07:42.265Z,135
2017-11-13T09:08:42.339Z,135
2017-11-13T09:09:42.282Z,135
2017-11-13T09:10:42.284Z,135
2017-11-13T09:11:42.252Z,135
2017-11-13T09:12:42.259Z,135
2017-11-13T09:13:42.361Z,135
2017-11-13T09:14:42.253Z,135
2017-11-13T09:15:42.294Z,135
2017-11-13T09:16:42.256Z,135
2017-11-13T09:17:42.294Z,135
2017-11-13T09:18:42.413Z,135
2017-11-13T09:19:42.241Z,135
2017-11-13T09:20:42.291Z,135
2017-11-13T09:21:42.268Z,135
2017-11-13T09:22:42.250Z,135
2017-11-13T09:23:42.382Z,135
2017-11-13T09:24:42.254Z,135
2017-11-13T09:25:42.257Z,135
2017-11-13T09:26:42.296Z,135
2017-11-13T09:27:42.244Z,135
2017-11-13T09:28:42.397Z,135
2017-11-13T09:29:42.315Z,135
2017-11-13T09:31:02.074Z,135
2017-11-13T09:31:42.245Z,137.4
2017-11-13T09:32:42.256Z,136.1
2017-11-13T09:33:42.249Z,135.5
2017-11-13T09:34:42.272Z,135.2
2017-11-13T09:35:42.274Z,135.1
2017-11-13T09:36:42.231Z,135.1
2017-11-13T09:37:42.261Z,135
2017-11-13T09:38:42.251Z,135
2017-11-13T09:39:42.308Z,135
2017-11-13T09:40:42.238Z,135
2017-11-13T09:41:42.280Z,135
2017-11-13T09:42:42.252Z,135
2017-11-13T09:43:42.271Z,135
2017-11-13T09:44:42.387Z,135
2017-11-13T09:45:42.271Z,135
2017-11-13T09:46:43.125Z,135
2017-11-13T09:47:42.257Z,135
2017-11-13T09:48:42.258Z,135
2017-11-13T09:49:42.350Z,135
2017-11-13T09:50:42.302Z,135
2017-11-13T09:52:16.880Z,135
2017-11-13T09:52:42.267Z,140.4
2017-11-13T09:53:42.269Z,137.4
2017-11-13T09:54:42.338Z,136.2
2017-11-13T09:55:42.242Z,135.5
2017-11-13T09:56:42.283Z,135.3
2017-11-13T09:57:42.302Z,135.1
2017-11-13T09:58:42.254Z,135.1
2017-11-13T09:59:42.310Z,135
2017-11-13T10:00:42.281Z,135
2017-11-13T10:01:42.254Z,135
2017-11-13T10:02:42.242Z,135
2017-11-13T10:03:42.240Z,135
2017-11-13T10:04:42.339Z,135
2017-11-13T10:05:42.369Z,135
2017-11-13T10:06:42.229Z,135
2017-11-13T10:07:42.278Z,135
2017-11-13T10:08:42.222Z,135
2017-11-13T10:09:42.326Z,135
2017-11-13T10:10:42.322Z,135
2017-11-13T10:11:42.263Z,135
2017-11-13T10:12:42.223Z,135
2017-11-13T10:13:42.265Z,135
2017-11-13T10:14:42.332Z,135
2017-11-13T10:15:42.306Z,135
2017-11-13T10:16:42.256Z,135
2017-11-13T10:17:42.259Z,135
2017-11-13T10:18:42.234Z,135
2017-11-13T10:19:42.330Z,135
2017-11-13T10:20:52.101Z,135
2017-11-13T10:21:42.261Z,136.4
2017-11-13T10:22:42.312Z,135.7
2017-11-13T10:23:42.243Z,135.3
2017-11-13T10:24:42.288Z,135.1
2017-11-13T10:25:42.245Z,135.1
2017-11-13T10:26:42.267Z,135
2017-11-13T10:27:42.316Z,135
2017-11-13T10:28:42.260Z,135
2017-11-13T10:29:42.317Z,135
2017-11-13T10:30:42.255Z,135
2017-11-13T10:31:42.237Z,135
2017-11-13T10:32:42.258Z,135
2017-11-13T10:33:42.265Z,135
2017-11-13T10:34:42.283Z,135
2017-11-13T10:35:42.273Z,135
2017-11-13T10:36:42.322Z,135
2017-11-13T10:37:42.251Z,135
2017-11-13T10:38:42.263Z,135
2017-11-13T10:39:42.343Z,135
2017-11-13T10:40:42.265Z,135
2017-11-13T10:41:42.309Z,135
2017-11-13T10:42:42.248Z,135
2017-11-13T10:43:42.353Z,135
2017-11-13T10:44:42.288Z,135
2017-11-13T10:45:42.353Z,135
2017-11-13T10:46:42.245Z,135
2017-11-13T10:47:42.316Z,135
2017-11-13T10:48:42.276Z,135
2017-11-13T10:49:42.241Z,135
2017-11-13T10:50:42.383Z,135
2017-11-13T10:51:42.252Z,135
2017-11-13T10:52:42.323Z,135
2017-11-13T10:53:42.254Z,135
2017-11-13T10:54:42.282Z,135
2017-11-13T10:55:42.316Z,135
2017-11-13T10:56:42.247Z,135
2017-11-13T10:57:42.289Z,135
2017-11-13T10:58:42.277Z,135
2017-11-13T10:59:42.256Z,135
2017-11-13T11:00:42.304Z,135
2017-11-13T11:01:42.249Z,135
2017-11-13T11:02:42.263Z,135
2017-11-13T11:03:42.266Z,135
2017-11-13T11:04:42.298Z,135
2017-11-13T11:05:42.308Z,135
2017-11-13T11:06:42.252Z,135
2017-11-13T11:07:42.333Z,135
2017-11-13T11:08:42.244Z,135
2017-11-13T11:09:42.257Z,135
2017-11-13T11:10:42.356Z,135
2017-11-13T11:11:42.274Z,135
2017-11-13T11:12:42.227Z,135
2017-11-13T11:13:42.232Z,135
2017-11-13T11:14:42.259Z,135
2017-11-13T11:15:42.348Z,135
2017-11-13T11:16:42.324Z,135
2017-11-13T11:17:42.259Z,135
2017-11-13T11:18:42.260Z,135
2017-11-13T11:19:42.242Z,135
2017-11-13T11:20:42.278Z,135
2017-11-13T11:21:42.249Z,135
2017-11-13T11:22:42.257Z,135
2017-11-13T11:23:42.305Z,135
2017-11-13T11:24:42.294Z,135
2017-11-13T11:25:42.295Z,135
2017-11-13T11:26:42.246Z,135
2017-11-13T11:27:42.261Z,135
2017-11-13T11:28:42.333Z,135
2017-11-13T11:29:42.264Z,135
2017-11-13T11:30:42.300Z,135
2017-11-13T11:31:42.270Z,135
2017-11-13T11:32:42.227Z,135
2017-11-13T11:34:16.850Z,135
2017-11-13T11:34:42.305Z,140.1
2017-11-13T11:35:42.374Z,137.4
2017-11-13T11:36:42.233Z,136.1
2017-11-13T11:37:42.251Z,135.5
2017-11-13T11:38:42.290Z,135.2
2017-11-13T11:39:42.239Z,135.1
2017-11-13T11:40:42.400Z,135.1
2017-11-13T11:41:42.280Z,135
2017-11-13T11:42:42.258Z,135
2017-11-13T11:43:42.260Z,135
2017-11-13T11:44:42.252Z,135
2017-11-13T11:45:42.361Z,135
2017-11-13T11:46:42.276Z,135
2017-11-13T11:47:42.264Z,135
2017-11-13T11:48:42.240Z,135
2017-11-13T11:49:42.287Z,135
2017-11-13T11:50:42.319Z,135
2017-11-13T11:51:42.277Z,135
2017-11-13T11:52:42.346Z,135
2017-11-13T11:53:42.281Z,135
2017-11-13T11:54:42.255Z,135
2017-11-13T11:55:42.298Z,135
2017-11-13T11:56:42.248Z,135
2017-11-13T11:57:42.223Z,135
2017-11-13T11:58:42.280Z,135
2017-11-13T11:59:42.318Z,135
2017-11-13T12:00:42.316Z,135
2017-11-13T12:01:42.254Z,135
2017-11-13T12:02:42.257Z,135
2017-11-13T12:03:42.290Z,135
2017-11-13T12:04:42.284Z,135
2017-11-13T12:05:42.347Z,135
2017-11-13T12:06:42.254Z,135
2017-11-13T12:07:42.283Z,135
2017-11-13T12:08:42.259Z,135
2017-11-13T12:09:42.264Z,135
2017-11-13T12:10:42.281Z,135
2017-11-13T12:11:42.247Z,135
2017-11-13T12:12:42.279Z,135
2017-11-13T12:13:42.280Z,135
2017-11-13T12:14:42.235Z,135
2017-11-13T12:15:42.290Z,135
2017-11-13T12:16:42.235Z,135
2017-11-13T12:17:42.286Z,135
2017-11-13T12:18:42.259Z,135
2017-11-13T12:19:42.288Z,135
2017-11-13T12:20:42.332Z,135
2017-11-13T12:21:42.327Z,135
2017-11-13T12:22:42.285Z,135
2017-11-13T12:23:42.300Z,135
2017-11-13T12:24:42.283Z,135
2017-11-13T12:25:42.287Z,135
2017-11-13T12:26:42.257Z,135
2017-11-13T12:27:42.228Z,135
2017-11-13T12:28:42.233Z,135
2017-11-13T12:29:42.211Z,135
2017-11-13T12:30:42.316Z,135
2017-11-13T12:31:42.310Z,135
2017-11-13T12:32:42.262Z,135
2017-11-13T12:33:42.265Z,135
2017-11-13T12:34:42.265Z,135
2017-11-13T12:35:42.266Z,135
2017-11-13T12:36:42.375Z,135
2017-11-13T12:37:42.364Z,135
2017-11-13T12:38:42.258Z,135
2017-11-13T12:39:42.276Z,135
2017-11-13T12:40:42.276Z,135
2017-11-13T12:41:42.318Z,135
2017-11-13T12:42:42.309Z,135
2017-11-13T12:43:42.279Z,135
2017-11-13T12:44:42.274Z,135
2017-11-13T12:45:42.247Z,135
2017-11-13T12:46:42.329Z,135
2017-11-13T12:47:42.314Z,135
2017-11-13T12:48:42.247Z,135
2017-11-13T12:49:42.264Z,135
2017-11-13T12:50:42.269Z,135
2017-11-13T12:51:42.318Z,135
2017-11-13T12:52:42.246Z,135
2017-11-13T12:53:42.236Z,135
2017-11-13T12:54:42.254Z,135
2017-11-13T12:55:42.312Z,135
2017-11-13T12:56:42.360Z,135
2017-11-13T12:57:42.243Z,135
2017-11-13T12:58:42.289Z,135
2017-11-13T12:59:42.263Z,135
2017-11-13T13:00:42.271Z,135
2017-11-13T13:01:42.312Z,135
2017-11-13T13:02:42.295Z,135
2017-11-13T13:03:42.280Z,135
2017-11-13T13:04:42.308Z,135
2017-11-13T13:05:42.327Z,135
2017-11-13T13:06:42.309Z,135
2017-11-13T13:07:42.222Z,135
2017-11-13T13:08:42.290Z,135
2017-11-13T13:09:42.268Z,135
2017-11-13T13:10:42.287Z,135
2017-11-13T13:11:42.342Z,135
2017-11-13T13:12:42.304Z,135
2017-11-13T13:13:42.299Z,135
2017-11-13T13:14:42.295Z,135